GMT,Max TemperatureF,Mean TemperatureF,Min TemperatureF,Max Dew PointF,MeanDew PointF,Min DewpointF,Max Humidity, Mean Humidity, Min Humidity, Max Sea Level PressureIn, Mean Sea Level PressureIn, Min Sea Level PressureIn, Max VisibilityMiles, Mean VisibilityMiles, Min VisibilityMiles, Max Wind SpeedMPH, Mean Wind SpeedMPH, Max Gust SpeedMPH,PrecipitationIn, CloudCover, Events, WindDirDegrees
2012-11-1,50,44,37,45,39,32,100,81,57,29.18,28.97,28.82,19,8,6,21,8,26,0.02,2,Rain,262
2012-11-2,52,42,33,43,37,32,93,79,49,29.42,29.30,29.21,19,7,6,21,8,,0.01,2,Rain,243
2012-11-3,51,42,33,41,37,32,96,78,47,29.52,29.44,29.33,19,7,1,18,7,26,0.00,2,Rain,238
2012-11-4,49,43,37,43,39,36,100,90,72,29.44,29.34,29.09,19,6,1,24,10,37,0.51,4,Rain,13
2012-11-5,50,41,30,44,37,29,100,86,52,30.06,29.78,29.48,18,6,0,15,7,,0.00,4,Fog-Rain,8
2012-11-6,52,39,26,45,38,25,100,87,61,30.27,30.19,30.06,17,5,1,15,4,,0.01,4,Fog,280
2012-11-7,52,44,37,45,42,36,100,83,66,30.34,30.29,30.23,17,7,6,13,6,,0.00,5,Fog,257
2012-11-8,55,46,37,48,43,36,100,85,57,30.21,30.11,30.04,19,7,4,13,6,,0.00,4,Fog,281
2012-11-9,53,48,42,49,44,41,100,85,64,30.04,29.79,29.53,14,6,3,16,5,,0.00,5,Rain,198
2012-11-10,52,42,32,50,43,31,100,91,65,29.61,29.46,29.42,13,6,0,13,6,,0.01,4,Fog-Rain,261
2012-11-11,51,40,28,43,36,27,100,87,58,30.14,29.94,29.68,14,5,0,9,3,,0.01,1,Fog,291
2012-11-12,55,47,39,54,50,38,100,95,92,30.26,30.16,30.12,9,5,1,15,5,,0.12,6,Fog-Rain,228
2012-11-13,56,53,50,54,52,50,100,94,86,30.34,30.30,30.24,11,6,2,12,6,,0.00,6,Rain,199
2012-11-14,55,45,35,52,44,34,100,85,55,30.32,30.27,30.24,16,6,1,12,6,,0.00,4,Fog,95
2012-11-15,49,46,42,45,43,42,100,86,70,30.24,30.16,30.09,6,4,2,7,6,,0.00,8,,74
2012-11-16,54,48,44,54,48,43,100,96,85,30.06,29.90,29.74,5,2,0,9,6,,0.02,7,Fog,109
2012-11-17,55,48,37,54,47,36,100,88,75,29.91,29.76,29.68,14,6,2,12,7,,0.01,4,Rain,291
2012-11-18,52,39,26,41,34,27,100,84,51,30.01,29.98,29.92,13,6,1,9,2,,0.00,1,Fog,197
2012-11-19,54,51,48,52,46,39,94,80,61,29.89,29.80,29.77,13,6,2,20,14,28,0.02,5,Rain,198
2012-11-20,55,52,50,54,52,48,100,94,87,29.79,29.74,29.71,10,5,2,24,17,39,0.12,5,Rain,187
2012-11-21,55,48,42,52,46,41,100,89,70,29.99,29.77,29.50,19,7,3,28,11,37,0.24,4,Rain,209
2012-11-22,56,50,45,50,48,44,100,82,67,29.98,29.81,29.65,10,6,2,31,19,50,0.75,5,Rain,207
2012-11-23,54,46,37,46,42,37,100,89,60,30.00,29.89,29.71,13,5,0,9,4,,0.02,3,Fog-Rain,233
2012-11-24,55,43,35,54,45,36,100,97,91,29.99,29.75,29.23,8,3,0,20,8,,0.67,5,Fog-Rain,94
2012-11-25,53,48,44,50,45,37,94,80,68,29.75,29.66,29.44,16,7,4,32,20,44,0.16,5,Rain,229
2012-11-26,49,46,42,46,43,39,100,92,81,29.57,29.47,29.42,19,7,4,14,6,,0.20,5,Rain,335
2012-11-27,48,45,42,45,41,37,93,85,68,29.88,29.69,29.53,19,8,6,20,11,30,0.02,6,Rain,356
2012-11-28,45,40,35,39,36,30,87,77,64,30.01,29.96,29.89,19,8,6,20,15,24,0.00,6,,352
2012-11-29,43,34,24,34,29,23,100,83,62,29.99,29.93,29.86,19,8,3,15,7,,0.00,,Fog,341
2012-11-30,41,32,24,36,31,23,100,89,73,29.98,29.91,29.86,9,5,2,6,2,,0.01,2,,320